Terminal Aerodrome Forecast
Issued by NWS

Home | Current Version | Previous Version | Text Only | Print | Product List | Glossary On
Versions: 1 2 3 4 5 6 7 8 9 10 11 12 13 14 15 16
583
FTUS43 KPAH 201137
TAFCGI
TAF
KCGI 201137Z 2012/2112 20007KT P6SM BKN200 WS020/24040KT
     FM201500 20010KT P6SM SCT015 OVC020
     FM210000 18007KT 5SM BR VCSH SCT008 OVC012=

USA.gov is the U.S. government's official web portal to all federal, state and local government web resources and services.